Time;durP1;ratioP1;P1;durP2;ratioP2;P2;SDS_P1;SDS_P2;PMS_P1;PMS_P2;Temp;Humidity;BMP_temperature;BMP_pressure;BME280_temperature;BME280_humidity;BME280_pressure;Samples;Min_cycle;Max_cycle;Signal;HPM_P1;HPM_P2
2023/01/19 00:02:16;;;;;;;83.43;39.15;;;;;;;;;;5023309;28;20103;-77
2023/01/19 00:04:41;;;;;;;62.95;22.42;;;;;;;;;;5018542;28;20894;-76
2023/01/19 00:07:06;;;;;;;93.03;38.63;;;;;;;;;;5009762;28;20123;-77
2023/01/19 00:09:32;;;;;;;57.90;21.85;;;;;;;;;;5016574;28;20033;-78
2023/01/19 00:11:58;;;;;;;64.60;25.20;;;;;;;;;;5015089;28;20029;-76
2023/01/19 00:14:23;;;;;;;63.80;18.88;;;;;;;;;;5020763;28;20049;-79
2023/01/19 00:16:48;;;;;;;66.25;19.55;;;;;;;;;;5011008;28;20052;-77
2023/01/19 00:19:13;;;;;;;51.55;18.38;;;;;;;;;;5012927;28;20342;-78
2023/01/19 00:21:39;;;;;;;42.22;11.50;;;;;;;;;;5006986;28;20018;-77
2023/01/19 00:24:04;;;;;;;45.65;12.45;;;;;;;;;;5019963;28;20022;-78
2023/01/19 00:26:30;;;;;;;63.35;22.02;;;;;;;;;;5022942;28;20041;-76
2023/01/19 00:28:55;;;;;;;46.30;12.23;;;;;;;;;;5022806;28;20435;-78
2023/01/19 00:31:20;;;;;;;52.85;18.88;;;;;;;;;;5022817;28;20025;-77
2023/01/19 00:33:48;;;;;;;57.50;18.40;;;;;;;;;;5021410;28;20030;-78
2023/01/19 00:36:13;;;;;;;50.67;16.58;;;;;;;;;;5020552;28;20029;-76
2023/01/19 00:38:38;;;;;;;49.92;19.13;;;;;;;;;;5010044;28;20463;-78
2023/01/19 00:41:04;;;;;;;50.05;18.15;;;;;;;;;;5022381;28;20036;-77
2023/01/19 00:43:29;;;;;;;59.67;29.52;;;;;;;;;;5022561;28;20085;-78
2023/01/19 00:45:54;;;;;;;70.60;34.88;;;;;;;;;;5020810;28;20049;-78
2023/01/19 00:48:20;;;;;;;73.07;29.58;;;;;;;;;;5023560;28;20065;-77
2023/01/19 00:50:46;;;;;;;68.18;31.58;;;;;;;;;;5022263;28;20026;-78
2023/01/19 00:53:11;;;;;;;65.47;23.55;;;;;;;;;;5015841;28;20044;-77
2023/01/19 00:55:37;;;;;;;73.40;29.35;;;;;;;;;;5015218;28;20029;-80
2023/01/19 00:58:02;;;;;;;69.57;29.33;;;;;;;;;;5022562;28;20048;-77
2023/01/19 01:00:27;;;;;;;65.00;22.27;;;;;;;;;;5021615;28;20104;-79
2023/01/19 01:02:53;;;;;;;67.60;26.45;;;;;;;;;;5024107;28;20423;-79
2023/01/19 01:05:19;;;;;;;52.92;15.35;;;;;;;;;;5028404;28;20040;-79
2023/01/19 01:07:45;;;;;;;55.65;20.17;;;;;;;;;;5026907;28;20117;-78
2023/01/19 01:10:12;;;;;;;50.17;16.55;;;;;;;;;;5027554;28;20033;-79
2023/01/19 01:12:38;;;;;;;53.67;15.77;;;;;;;;;;5028681;28;20112;-78
2023/01/19 01:15:04;;;;;;;41.25;12.02;;;;;;;;;;5027102;28;20104;-78
2023/01/19 01:17:29;;;;;;;49.33;15.40;;;;;;;;;;5026381;28;20022;-78
2023/01/19 01:19:55;;;;;;;47.17;14.98;;;;;;;;;;5026581;28;20048;-78
2023/01/19 01:22:20;;;;;;;40.05;11.40;;;;;;;;;;5027003;28;20462;-78
2023/01/19 01:24:45;;;;;;;46.88;12.35;;;;;;;;;;5026013;28;20083;-78
2023/01/19 01:27:10;;;;;;;41.08;9.65;;;;;;;;;;5027125;28;20837;-77
2023/01/19 01:29:36;;;;;;;36.13;11.18;;;;;;;;;;5026285;28;20353;-78
2023/01/19 01:32:01;;;;;;;38.17;10.45;;;;;;;;;;5025803;28;20029;-77
2023/01/19 01:34:26;;;;;;;38.40;11.43;;;;;;;;;;5024404;28;20037;-77
2023/01/19 01:36:53;;;;;;;42.25;12.38;;;;;;;;;;5015161;28;20029;-77
2023/01/19 01:39:18;;;;;;;44.25;11.60;;;;;;;;;;5024242;28;20037;-79
2023/01/19 01:41:44;;;;;;;41.28;12.13;;;;;;;;;;5023826;28;20159;-77
2023/01/19 01:44:28;;;;;;;37.13;9.82;;;;;;;;;;5017540;28;20131;-77
2023/01/19 01:46:53;;;;;;;34.63;11.80;;;;;;;;;;5026812;28;20037;-77
2023/01/19 01:49:18;;;;;;;54.75;18.70;;;;;;;;;;5025345;28;20039;-78
2023/01/19 01:51:47;;;;;;;53.50;19.55;;;;;;;;;;5025156;28;20032;-78
2023/01/19 01:54:20;;;;;;;37.15;15.30;;;;;;;;;;5023345;28;20029;-78
2023/01/19 01:56:47;;;;;;;41.95;13.18;;;;;;;;;;5024995;28;20040;-78
2023/01/19 01:59:24;;;;;;;53.55;17.23;;;;;;;;;;5024690;28;20029;-79
2023/01/19 02:04:34;;;;;;;44.45;18.45;;;;;;;;;;5025856;28;20161;-78
2023/01/19 02:15:19;;;;;;;47.38;11.90;;;;;;;;;;5025379;28;20049;-79
2023/01/19 02:17:44;;;;;;;48.58;16.88;;;;;;;;;;5025361;28;20212;-79
2023/01/19 02:20:10;;;;;;;41.70;9.82;;;;;;;;;;5023607;28;21167;-80
2023/01/19 02:22:39;;;;;;;43.92;10.40;;;;;;;;;;5025629;28;20029;-79
2023/01/19 02:25:05;;;;;;;45.03;11.70;;;;;;;;;;5024939;28;20021;-78
2023/01/19 02:27:31;;;;;;;47.00;15.88;;;;;;;;;;5025858;28;20041;-80
2023/01/19 02:29:57;;;;;;;37.33;11.07;;;;;;;;;;5025398;28;20345;-78
2023/01/19 02:32:23;;;;;;;50.88;21.15;;;;;;;;;;5025248;28;20144;-80
2023/01/19 02:34:48;;;;;;;44.75;14.40;;;;;;;;;;5023737;28;20381;-79
2023/01/19 02:37:14;;;;;;;52.63;13.80;;;;;;;;;;5014610;28;20057;-79
2023/01/19 02:39:41;;;;;;;46.08;15.85;;;;;;;;;;5021286;28;20021;-78
2023/01/19 02:42:18;;;;;;;48.58;15.52;;;;;;;;;;5023861;28;20077;-78
2023/01/19 02:44:45;;;;;;;44.58;15.52;;;;;;;;;;5024326;28;20021;-80
2023/01/19 02:47:11;;;;;;;46.28;12.65;;;;;;;;;;5025926;28;20441;-78
2023/01/19 02:49:37;;;;;;;51.42;14.85;;;;;;;;;;5025368;28;20634;-79
2023/01/19 02:52:03;;;;;;;37.83;12.32;;;;;;;;;;5024384;28;20056;-78
2023/01/19 02:54:46;;;;;;;46.17;15.23;;;;;;;;;;5025042;28;20512;-80
2023/01/19 02:57:18;;;;;;;43.42;12.15;;;;;;;;;;5023040;28;20470;-77
2023/01/19 02:59:51;;;;;;;53.70;17.20;;;;;;;;;;5025495;28;20033;-78
2023/01/19 03:02:19;;;;;;;39.60;13.07;;;;;;;;;;5023019;28;20164;-77
2023/01/19 03:05:02;;;;;;;43.83;13.63;;;;;;;;;;5024078;28;20560;-80
2023/01/19 03:07:36;;;;;;;61.10;24.73;;;;;;;;;;5024065;28;20079;-79
2023/01/19 03:10:02;;;;;;;56.88;19.77;;;;;;;;;;5024126;28;20039;-79
2023/01/19 03:12:38;;;;;;;42.97;13.27;;;;;;;;;;5018749;28;20021;-80
2023/01/19 03:15:09;;;;;;;39.85;11.57;;;;;;;;;;5019174;28;20057;-78
2023/01/19 03:17:36;;;;;;;38.30;9.90;;;;;;;;;;5025001;28;20515;-77
2023/01/19 03:20:02;;;;;;;45.22;13.65;;;;;;;;;;5024082;28;20068;-81
2023/01/19 03:22:28;;;;;;;31.80;9.35;;;;;;;;;;5022070;28;20025;-78
2023/01/19 03:24:55;;;;;;;48.92;10.98;;;;;;;;;;5011746;28;20087;-78
2023/01/19 03:27:24;;;;;;;43.40;11.82;;;;;;;;;;5009034;28;20096;-78
2023/01/19 03:29:52;;;;;;;51.72;15.20;;;;;;;;;;5016370;28;20087;-77
2023/01/19 03:32:20;;;;;;;35.38;10.23;;;;;;;;;;5014020;28;20037;-77
2023/01/19 03:34:47;;;;;;;46.15;12.30;;;;;;;;;;5016581;28;20040;-77
2023/01/19 03:37:14;;;;;;;43.53;12.52;;;;;;;;;;5021421;28;20483;-77
2023/01/19 03:39:39;;;;;;;41.40;12.63;;;;;;;;;;5016752;28;20127;-78
2023/01/19 03:42:07;;;;;;;44.88;10.85;;;;;;;;;;5015252;28;20080;-78
2023/01/19 03:44:35;;;;;;;40.65;11.05;;;;;;;;;;5008967;28;20048;-81
2023/01/19 03:47:01;;;;;;;45.40;13.55;;;;;;;;;;5013204;28;20037;-78
2023/01/19 03:49:29;;;;;;;51.95;13.73;;;;;;;;;;5023287;28;20277;-78
2023/01/19 03:51:55;;;;;;;47.35;13.60;;;;;;;;;;5023883;28;20114;-79
2023/01/19 03:54:20;;;;;;;52.75;15.02;;;;;;;;;;5040059;28;20333;-78
2023/01/19 03:56:45;;;;;;;49.53;12.50;;;;;;;;;;5023756;28;20059;-78
2023/01/19 03:59:11;;;;;;;39.38;10.43;;;;;;;;;;5023923;28;20022;-79
2023/01/19 04:01:36;;;;;;;52.85;12.27;;;;;;;;;;5022567;28;20667;-77
2023/01/19 04:04:01;;;;;;;42.33;12.20;;;;;;;;;;5014258;28;20399;-77
2023/01/19 04:06:27;;;;;;;51.72;14.90;;;;;;;;;;5019707;28;20094;-77
2023/01/19 04:08:52;;;;;;;48.22;13.43;;;;;;;;;;5023006;28;20068;-78
2023/01/19 04:11:18;;;;;;;49.65;14.02;;;;;;;;;;5023526;28;20029;-78
2023/01/19 04:13:43;;;;;;;56.30;14.82;;;;;;;;;;5022697;28;20094;-79
2023/01/19 04:16:09;;;;;;;58.25;21.85;;;;;;;;;;5015356;28;20033;-77
2023/01/19 04:18:35;;;;;;;54.50;18.00;;;;;;;;;;5020762;28;20044;-78
2023/01/19 04:21:01;;;;;;;90.07;37.63;;;;;;;;;;5022157;28;20040;-77
2023/01/19 04:23:27;;;;;;;93.68;37.90;;;;;;;;;;5022625;28;21264;-78
2023/01/19 04:25:56;;;;;;;162.95;70.45;;;;;;;;;;5023354;28;20041;-78
2023/01/19 04:28:21;;;;;;;104.82;49.22;;;;;;;;;;5020658;28;20016;-78
2023/01/19 04:30:48;;;;;;;74.55;31.50;;;;;;;;;;5007415;28;20056;-78
2023/01/19 04:33:13;;;;;;;79.68;34.78;;;;;;;;;;5018111;28;20021;-78
2023/01/19 04:35:39;;;;;;;98.05;47.67;;;;;;;;;;5022452;28;20506;-79
2023/01/19 04:38:04;;;;;;;49.67;13.30;;;;;;;;;;5022973;28;20037;-79
2023/01/19 04:40:29;;;;;;;44.80;10.38;;;;;;;;;;5015606;28;20049;-77
2023/01/19 04:42:55;;;;;;;36.05;9.57;;;;;;;;;;5026302;28;20053;-79
2023/01/19 04:45:20;;;;;;;56.20;21.17;;;;;;;;;;5027630;28;20033;-78
2023/01/19 04:47:45;;;;;;;58.22;23.50;;;;;;;;;;5022903;28;20048;-80
2023/01/19 04:50:10;;;;;;;44.03;10.40;;;;;;;;;;5017984;28;20128;-78
2023/01/19 04:52:36;;;;;;;37.38;9.63;;;;;;;;;;5026420;28;20040;-78
2023/01/19 04:55:03;;;;;;;38.67;12.07;;;;;;;;;;5012920;28;20021;-78
2023/01/19 04:57:29;;;;;;;50.67;15.60;;;;;;;;;;5014109;28;20473;-79
2023/01/19 04:59:55;;;;;;;33.53;10.68;;;;;;;;;;5014642;28;20029;-78
2023/01/19 05:02:21;;;;;;;33.67;9.18;;;;;;;;;;5013577;28;20029;-76
2023/01/19 05:04:46;;;;;;;43.53;11.23;;;;;;;;;;5015514;28;20471;-77
2023/01/19 05:07:12;;;;;;;44.72;8.82;;;;;;;;;;5025508;28;20025;-79
2023/01/19 05:09:37;;;;;;;34.50;8.18;;;;;;;;;;5026759;28;20061;-79
2023/01/19 05:12:02;;;;;;;37.25;8.90;;;;;;;;;;5024616;28;20094;-78
2023/01/19 05:14:28;;;;;;;41.05;8.98;;;;;;;;;;5028055;28;20112;-78
2023/01/19 05:16:53;;;;;;;27.45;6.57;;;;;;;;;;5025686;28;20029;-80
2023/01/19 05:19:18;;;;;;;37.75;7.60;;;;;;;;;;5026249;28;20061;-77
2023/01/19 05:21:43;;;;;;;25.50;5.82;;;;;;;;;;5024205;28;20404;-78
2023/01/19 05:24:09;;;;;;;38.10;9.15;;;;;;;;;;5013564;28;20036;-79
2023/01/19 05:26:34;;;;;;;41.45;10.98;;;;;;;;;;5022630;28;20081;-78
2023/01/19 05:28:59;;;;;;;44.83;21.25;;;;;;;;;;5042535;28;20117;-79
2023/01/19 05:31:25;;;;;;;72.85;34.15;;;;;;;;;;5012714;28;20025;-79
2023/01/19 05:33:50;;;;;;;90.20;39.35;;;;;;;;;;5020666;28;20371;-78
2023/01/19 05:36:15;;;;;;;73.43;33.45;;;;;;;;;;5013959;28;20364;-78
2023/01/19 05:38:41;;;;;;;83.57;47.15;;;;;;;;;;5027045;28;20432;-79
2023/01/19 05:41:06;;;;;;;143.13;80.35;;;;;;;;;;5026392;28;20022;-77
2023/01/19 05:43:31;;;;;;;84.07;39.88;;;;;;;;;;5017123;28;20064;-78
2023/01/19 05:45:57;;;;;;;107.72;58.40;;;;;;;;;;5019323;28;20139;-77
2023/01/19 05:48:22;;;;;;;115.88;64.47;;;;;;;;;;5023427;28;20033;-77
2023/01/19 05:50:48;;;;;;;52.30;17.67;;;;;;;;;;5024984;28;20045;-77
2023/01/19 05:53:13;;;;;;;91.07;49.40;;;;;;;;;;5026330;28;20025;-78
2023/01/19 05:55:39;;;;;;;79.00;32.35;;;;;;;;;;5024656;28;20368;-81
2023/01/19 05:58:04;;;;;;;78.80;37.60;;;;;;;;;;5026191;28;20120;-77
2023/01/19 06:00:29;;;;;;;88.85;39.75;;;;;;;;;;5025997;28;20415;-78
2023/01/19 06:02:55;;;;;;;76.70;29.08;;;;;;;;;;5024876;28;20043;-78
2023/01/19 06:05:20;;;;;;;79.82;35.60;;;;;;;;;;5014541;28;20032;-80
2023/01/19 06:07:46;;;;;;;108.00;42.67;;;;;;;;;;5013621;28;20394;-79
2023/01/19 06:10:11;;;;;;;59.50;23.42;;;;;;;;;;5014690;28;20444;-80
2023/01/19 06:12:40;;;;;;;48.80;15.93;;;;;;;;;;5010806;28;20416;-80
2023/01/19 06:15:06;;;;;;;39.60;14.47;;;;;;;;;;5012613;28;20042;-80
2023/01/19 06:17:32;;;;;;;62.95;21.13;;;;;;;;;;5012587;28;20296;-79
2023/01/19 06:19:57;;;;;;;61.97;24.20;;;;;;;;;;5016587;28;20469;-77
2023/01/19 06:22:23;;;;;;;47.47;12.50;;;;;;;;;;5028070;28;20088;-78
2023/01/19 06:24:48;;;;;;;48.10;15.68;;;;;;;;;;5025425;28;20476;-77
2023/01/19 06:27:13;;;;;;;40.30;12.95;;;;;;;;;;5025681;28;20399;-78
2023/01/19 06:29:39;;;;;;;54.67;15.30;;;;;;;;;;5025805;28;20025;-78
2023/01/19 06:32:04;;;;;;;114.75;41.70;;;;;;;;;;5024970;28;20076;-78
2023/01/19 06:34:29;;;;;;;75.13;34.40;;;;;;;;;;5025881;28;20036;-78
2023/01/19 06:36:55;;;;;;;117.38;57.13;;;;;;;;;;5024388;28;20136;-79
2023/01/19 06:39:20;;;;;;;68.03;26.98;;;;;;;;;;5024077;28;20044;-78
2023/01/19 06:41:46;;;;;;;207.48;71.95;;;;;;;;;;5024569;28;20089;-78
2023/01/19 06:44:11;;;;;;;62.35;19.02;;;;;;;;;;5025297;28;20424;-78
2023/01/19 06:46:36;;;;;;;81.85;27.58;;;;;;;;;;5024372;28;20083;-77
2023/01/19 06:49:02;;;;;;;61.40;19.42;;;;;;;;;;5025160;28;20076;-77
2023/01/19 06:51:27;;;;;;;154.38;80.68;;;;;;;;;;5022621;28;20033;-77
2023/01/19 06:53:52;;;;;;;107.63;40.80;;;;;;;;;;5015461;28;20365;-78
2023/01/19 06:56:18;;;;;;;78.60;25.25;;;;;;;;;;5022096;28;20052;-81
2023/01/19 06:58:45;;;;;;;59.08;21.52;;;;;;;;;;5024643;28;20029;-79
2023/01/19 07:01:10;;;;;;;72.15;25.77;;;;;;;;;;5024708;28;20095;-79
2023/01/19 07:03:37;;;;;;;77.78;29.85;;;;;;;;;;5023354;28;20433;-79
2023/01/19 07:06:05;;;;;;;75.10;30.15;;;;;;;;;;5022243;28;20159;-79
2023/01/19 07:08:30;;;;;;;82.18;32.83;;;;;;;;;;5024354;28;20025;-80
2023/01/19 07:11:00;;;;;;;141.70;60.10;;;;;;;;;;5019752;28;20022;-80
2023/01/19 07:13:25;;;;;;;96.10;40.92;;;;;;;;;;5007249;28;20017;-80
2023/01/19 07:15:51;;;;;;;71.72;25.13;;;;;;;;;;5009962;28;20033;-79
2023/01/19 07:18:16;;;;;;;80.55;25.15;;;;;;;;;;5014645;28;20041;-78
2023/01/19 07:20:43;;;;;;;130.45;50.97;;;;;;;;;;5024070;28;20067;-78
2023/01/19 07:23:09;;;;;;;67.03;12.80;;;;;;;;;;5025275;28;20386;-79
2023/01/19 07:25:34;;;;;;;58.45;15.65;;;;;;;;;;5016931;28;20040;-80
2023/01/19 07:28:00;;;;;;;38.85;11.98;;;;;;;;;;5012731;28;20251;-79
2023/01/19 07:30:25;;;;;;;54.20;12.13;;;;;;;;;;5024018;28;20043;-78
2023/01/19 07:32:53;;;;;;;54.45;13.05;;;;;;;;;;5019066;28;20026;-77
2023/01/19 07:35:18;;;;;;;53.40;12.68;;;;;;;;;;5011015;28;20042;-78
2023/01/19 07:37:43;;;;;;;59.60;13.48;;;;;;;;;;5012066;28;20021;-78
2023/01/19 07:40:09;;;;;;;45.95;11.88;;;;;;;;;;5011685;28;20060;-77
2023/01/19 07:42:35;;;;;;;57.25;11.63;;;;;;;;;;5024780;28;20053;-78
2023/01/19 07:45:00;;;;;;;47.15;13.10;;;;;;;;;;5010056;28;20128;-78
2023/01/19 07:47:25;;;;;;;48.78;13.40;;;;;;;;;;5009670;28;20029;-78
2023/01/19 07:49:52;;;;;;;51.67;12.00;;;;;;;;;;5009080;28;20251;-77
2023/01/19 07:52:17;;;;;;;69.25;14.43;;;;;;;;;;5010534;28;20447;-76
2023/01/19 07:54:42;;;;;;;73.28;18.25;;;;;;;;;;5010390;28;20029;-77
2023/01/19 07:57:08;;;;;;;65.65;20.27;;;;;;;;;;5009283;28;20112;-77
2023/01/19 07:59:33;;;;;;;76.57;25.25;;;;;;;;;;5010844;28;20120;-78
2023/01/19 08:01:58;;;;;;;75.93;25.75;;;;;;;;;;5010833;28;20436;-78
2023/01/19 08:04:27;;;;;;;65.95;20.05;;;;;;;;;;5010707;28;20033;-78
2023/01/19 08:06:52;;;;;;;68.53;17.38;;;;;;;;;;5009717;28;20044;-77
2023/01/19 08:09:17;;;;;;;88.65;20.90;;;;;;;;;;5007877;28;20029;-79
2023/01/19 08:11:43;;;;;;;80.18;27.33;;;;;;;;;;5009917;28;20325;-77
2023/01/19 08:14:08;;;;;;;75.82;27.98;;;;;;;;;;5009259;28;20049;-78
2023/01/19 08:16:34;;;;;;;197.27;89.70;;;;;;;;;;5008503;28;20034;-79
2023/01/19 08:18:59;;;;;;;143.70;55.95;;;;;;;;;;5010090;28;20017;-78
2023/01/19 08:21:24;;;;;;;104.82;40.90;;;;;;;;;;5009351;28;20025;-77
2023/01/19 08:23:53;;;;;;;111.43;44.25;;;;;;;;;;5008570;28;20445;-76
2023/01/19 08:26:22;;;;;;;257.73;129.80;;;;;;;;;;5008939;28;20044;-77
2023/01/19 08:28:48;;;;;;;97.30;37.93;;;;;;;;;;5007322;28;20053;-77
2023/01/19 08:31:13;;;;;;;65.85;16.98;;;;;;;;;;5009057;28;20038;-76
2023/01/19 08:33:38;;;;;;;41.45;15.23;;;;;;;;;;5008524;28;20021;-74
2023/01/19 08:36:04;;;;;;;32.90;10.43;;;;;;;;;;5005701;28;20037;-77
2023/01/19 08:38:29;;;;;;;42.25;9.23;;;;;;;;;;5010003;28;20061;-76
2023/01/19 08:40:54;;;;;;;35.90;8.18;;;;;;;;;;5008546;28;20025;-77
2023/01/19 08:43:20;;;;;;;45.53;9.13;;;;;;;;;;5007924;28;20357;-76
2023/01/19 08:45:49;;;;;;;38.90;12.23;;;;;;;;;;5006442;28;20341;-76
2023/01/19 08:48:15;;;;;;;43.22;10.95;;;;;;;;;;5007781;28;20036;-77
2023/01/19 08:50:40;;;;;;;46.08;10.80;;;;;;;;;;5009995;28;20036;-78
2023/01/19 08:53:06;;;;;;;57.92;11.10;;;;;;;;;;5009081;28;20029;-75
2023/01/19 08:55:32;;;;;;;57.80;13.48;;;;;;;;;;5011352;28;20033;-75
2023/01/19 08:58:02;;;;;;;41.38;11.13;;;;;;;;;;5008944;28;20076;-76
2023/01/19 09:00:30;;;;;;;49.20;11.00;;;;;;;;;;5007034;28;20038;-78
2023/01/19 09:02:56;;;;;;;49.92;11.57;;;;;;;;;;5010104;28;20030;-78
2023/01/19 09:05:21;;;;;;;44.25;13.65;;;;;;;;;;5009512;28;20459;-78
2023/01/19 09:07:50;;;;;;;59.10;14.23;;;;;;;;;;5010033;28;20025;-77
2023/01/19 09:10:16;;;;;;;48.85;14.75;;;;;;;;;;5008345;28;20025;-78
2023/01/19 09:12:43;;;;;;;61.63;16.23;;;;;;;;;;5008513;28;20502;-79
2023/01/19 09:15:09;;;;;;;44.75;11.20;;;;;;;;;;5010432;28;20352;-76
2023/01/19 09:17:35;;;;;;;48.88;12.88;;;;;;;;;;5008908;28;21182;-78
2023/01/19 09:20:00;;;;;;;41.38;13.18;;;;;;;;;;5008659;28;20025;-77
2023/01/19 09:22:25;;;;;;;59.42;15.40;;;;;;;;;;5009024;28;20109;-79
2023/01/19 09:24:51;;;;;;;43.53;11.45;;;;;;;;;;5011728;28;20429;-79
2023/01/19 09:27:16;;;;;;;41.25;11.38;;;;;;;;;;5011581;28;20030;-78
2023/01/19 09:29:42;;;;;;;52.50;15.80;;;;;;;;;;5012072;28;20047;-77
2023/01/19 09:32:10;;;;;;;42.30;13.13;;;;;;;;;;5013040;28;20021;-77
2023/01/19 09:34:35;;;;;;;45.08;12.90;;;;;;;;;;5011035;28;20017;-77
2023/01/19 09:37:00;;;;;;;41.65;11.50;;;;;;;;;;5010825;28;20047;-78
2023/01/19 09:39:26;;;;;;;38.75;11.55;;;;;;;;;;5009837;28;20033;-79
2023/01/19 09:42:02;;;;;;;66.78;28.05;;;;;;;;;;5010810;28;20380;-76
2023/01/19 09:44:28;;;;;;;55.47;21.35;;;;;;;;;;5010738;28;20021;-76
2023/01/19 09:46:53;;;;;;;53.55;18.63;;;;;;;;;;5013453;28;20440;-78
2023/01/19 09:49:23;;;;;;;58.38;26.77;;;;;;;;;;5010654;28;20033;-78
2023/01/19 09:51:49;;;;;;;33.03;10.90;;;;;;;;;;5010466;28;20041;-79
2023/01/19 09:54:16;;;;;;;31.98;13.57;;;;;;;;;;5013356;28;20458;-78
2023/01/19 09:56:41;;;;;;;40.20;17.58;;;;;;;;;;5010986;28;20095;-78
2023/01/19 09:59:18;;;;;;;36.35;20.75;;;;;;;;;;5011843;28;20440;-79
2023/01/19 10:01:43;;;;;;;30.15;18.00;;;;;;;;;;5012206;28;20459;-79
2023/01/19 10:04:16;;;;;;;35.00;17.13;;;;;;;;;;5013760;28;20029;-78
2023/01/19 10:06:42;;;;;;;30.23;16.63;;;;;;;;;;5011379;28;20112;-79
2023/01/19 10:09:21;;;;;;;21.83;10.23;;;;;;;;;;5012684;28;20427;-78
2023/01/19 10:12:16;;;;;;;31.13;14.57;;;;;;;;;;5011917;28;20091;-80
2023/01/19 10:14:50;;;;;;;29.92;14.60;;;;;;;;;;5001699;28;20037;-80
2023/01/19 10:17:35;;;;;;;18.92;8.93;;;;;;;;;;5008120;28;20040;-79
2023/01/19 10:20:01;;;;;;;18.65;8.25;;;;;;;;;;5003118;28;20041;-77
2023/01/19 10:22:27;;;;;;;18.65;9.35;;;;;;;;;;4999760;28;20026;-78
2023/01/19 10:24:54;;;;;;;21.10;7.35;;;;;;;;;;4997553;28;20467;-78
2023/01/19 10:27:23;;;;;;;21.58;10.02;;;;;;;;;;5001767;28;20567;-77
2023/01/19 10:29:48;;;;;;;25.35;11.93;;;;;;;;;;4999982;28;20030;-79
2023/01/19 10:32:21;;;;;;;24.55;13.05;;;;;;;;;;5001205;28;20392;-78
2023/01/19 10:34:47;;;;;;;31.55;17.85;;;;;;;;;;5002060;28;20428;-77
2023/01/19 10:37:16;;;;;;;15.52;8.07;;;;;;;;;;4999958;28;20373;-77
2023/01/19 10:39:42;;;;;;;23.92;12.93;;;;;;;;;;4999521;28;20042;-76
2023/01/19 10:42:11;;;;;;;13.50;8.93;;;;;;;;;;4999012;28;20053;-77
2023/01/19 10:44:36;;;;;;;14.07;7.23;;;;;;;;;;5002049;28;20048;-77
2023/01/19 10:47:03;;;;;;;22.33;13.30;;;;;;;;;;5002178;28;20034;-78
2023/01/19 10:49:34;;;;;;;17.77;9.32;;;;;;;;;;4989925;28;20420;-77
2023/01/19 10:52:00;;;;;;;17.17;8.02;;;;;;;;;;5010177;28;20068;-79
2023/01/19 10:54:27;;;;;;;31.38;21.48;;;;;;;;;;5012109;28;20420;-79
2023/01/19 10:56:54;;;;;;;27.40;19.05;;;;;;;;;;5008461;28;20392;-78
2023/01/19 10:59:30;;;;;;;24.73;17.45;;;;;;;;;;5010392;28;20043;-77
2023/01/19 11:02:31;;;;;;;26.40;19.15;;;;;;;;;;5011485;28;20036;-78
2023/01/19 11:04:57;;;;;;;10.18;4.15;;;;;;;;;;5001721;28;20041;-76
2023/01/19 11:07:25;;;;;;;12.82;4.95;;;;;;;;;;5000673;28;21187;-78
2023/01/19 11:10:09;;;;;;;14.32;6.97;;;;;;;;;;4997198;28;20940;-76
2023/01/19 11:12:38;;;;;;;18.58;8.50;;;;;;;;;;5000812;28;20469;-76
2023/01/19 11:15:11;;;;;;;42.00;21.50;;;;;;;;;;4999892;28;20025;-77
2023/01/19 11:17:39;;;;;;;23.08;13.65;;;;;;;;;;5002471;28;20089;-77
2023/01/19 11:20:05;;;;;;;40.85;21.25;;;;;;;;;;5000864;28;20108;-79
2023/01/19 11:22:31;;;;;;;22.90;10.73;;;;;;;;;;5003018;28;20030;-77
2023/01/19 11:25:00;;;;;;;71.93;46.65;;;;;;;;;;5000171;28;20040;-76
2023/01/19 11:27:26;;;;;;;59.63;39.13;;;;;;;;;;5002713;28;20047;-76
2023/01/19 11:30:21;;;;;;;75.00;51.15;;;;;;;;;;5000545;28;20124;-76
2023/01/19 11:32:48;;;;;;;66.97;41.80;;;;;;;;;;4979168;28;20053;-76
2023/01/19 11:35:31;;;;;;;43.75;24.17;;;;;;;;;;4998442;28;20033;-78
2023/01/19 11:38:15;;;;;;;54.65;29.58;;;;;;;;;;5003635;28;20065;-77
2023/01/19 11:40:44;;;;;;;45.53;26.30;;;;;;;;;;5010003;28;20025;-79
2023/01/19 11:43:11;;;;;;;88.47;55.50;;;;;;;;;;5009610;28;20311;-77
2023/01/19 11:45:37;;;;;;;57.47;40.22;;;;;;;;;;5011292;28;20107;-76
2023/01/19 11:48:04;;;;;;;70.68;40.78;;;;;;;;;;5005943;28;20025;-76
2023/01/19 11:50:35;;;;;;;40.25;20.17;;;;;;;;;;5009460;28;20935;-76
2023/01/19 11:53:06;;;;;;;28.85;19.08;;;;;;;;;;5010102;28;20029;-76
2023/01/19 11:55:40;;;;;;;32.78;22.70;;;;;;;;;;5009553;28;20022;-75
2023/01/19 11:58:06;;;;;;;57.08;39.22;;;;;;;;;;5010983;28;20239;-75
2023/01/19 12:00:34;;;;;;;67.35;39.47;;;;;;;;;;5009784;28;20431;-76
2023/01/19 12:03:05;;;;;;;46.60;25.65;;;;;;;;;;5009391;28;20112;-77
2023/01/19 12:05:33;;;;;;;139.05;78.97;;;;;;;;;;5010000;28;20491;-77
2023/01/19 12:08:01;;;;;;;88.28;50.80;;;;;;;;;;5023921;28;20044;-75
2023/01/19 12:10:32;;;;;;;144.82;83.88;;;;;;;;;;5007604;28;20360;-77
2023/01/19 12:12:57;;;;;;;118.22;68.65;;;;;;;;;;5008601;28;20049;-76
2023/01/19 12:15:29;;;;;;;190.93;109.93;;;;;;;;;;5010009;28;20030;-77
2023/01/19 12:17:57;;;;;;;142.48;80.03;;;;;;;;;;5008838;28;20037;-78
2023/01/19 12:20:41;;;;;;;66.53;39.90;;;;;;;;;;5007883;28;20105;-77
2023/01/19 12:23:10;;;;;;;114.75;64.65;;;;;;;;;;5009919;28;20346;-77
2023/01/19 12:25:42;;;;;;;150.13;88.22;;;;;;;;;;5011305;28;20037;-77
2023/01/19 12:28:11;;;;;;;42.90;22.00;;;;;;;;;;5011321;28;20036;-77
2023/01/19 12:30:36;;;;;;;161.93;92.82;;;;;;;;;;5010130;28;20091;-77
2023/01/19 12:33:20;;;;;;;288.63;170.52;;;;;;;;;;5008778;28;20033;-77
2023/01/19 12:36:13;;;;;;;155.82;85.50;;;;;;;;;;5009603;28;20440;-78
2023/01/19 12:38:57;;;;;;;83.72;44.92;;;;;;;;;;5007316;28;20034;-77
2023/01/19 12:41:38;;;;;;;76.70;44.03;;;;;;;;;;5005719;28;20029;-77
2023/01/19 12:44:10;;;;;;;27.60;17.35;;;;;;;;;;5009548;28;20471;-77
2023/01/19 12:46:41;;;;;;;25.88;18.58;;;;;;;;;;5007626;28;20064;-76
2023/01/19 12:49:12;;;;;;;22.25;6.95;;;;;;;;;;5009311;28;20037;-76
2023/01/19 12:51:38;;;;;;;41.88;32.88;;;;;;;;;;5009753;28;22695;-77
2023/01/19 12:54:05;;;;;;;38.92;27.85;;;;;;;;;;5007414;28;20104;-77
2023/01/19 12:56:32;;;;;;;65.40;48.42;;;;;;;;;;5007461;28;20033;-78
2023/01/19 12:58:58;;;;;;;69.53;48.30;;;;;;;;;;5009842;28;20053;-75
2023/01/19 13:01:25;;;;;;;138.20;110.90;;;;;;;;;;5029009;28;20065;-77
2023/01/19 13:03:58;;;;;;;44.78;32.97;;;;;;;;;;5012515;28;20029;-77
2023/01/19 13:06:50;;;;;;;28.42;16.65;;;;;;;;;;5012907;28;20021;-75
2023/01/19 13:09:31;;;;;;;22.98;13.85;;;;;;;;;;5003447;28;20056;-77
2023/01/19 13:12:09;;;;;;;21.20;10.57;;;;;;;;;;5011346;28;20106;-76
2023/01/19 13:14:36;;;;;;;17.52;9.02;;;;;;;;;;5012133;28;20053;-75
2023/01/19 13:17:01;;;;;;;14.52;9.38;;;;;;;;;;5013962;28;20025;-76
2023/01/19 13:19:33;;;;;;;17.65;8.40;;;;;;;;;;5019374;28;20388;-77
2023/01/19 13:22:19;;;;;;;27.88;17.33;;;;;;;;;;5027141;28;20108;-78
2023/01/19 13:25:04;;;;;;;31.67;23.92;;;;;;;;;;5011658;28;20104;-78
2023/01/19 13:27:29;;;;;;;23.75;13.93;;;;;;;;;;5021131;28;20041;-79
2023/01/19 13:29:55;;;;;;;18.73;11.52;;;;;;;;;;5024018;28;20029;-79
2023/01/19 13:32:23;;;;;;;19.92;14.25;;;;;;;;;;5025559;28;20029;-77
2023/01/19 13:34:57;;;;;;;21.30;15.88;;;;;;;;;;5024961;28;20018;-79
2023/01/19 13:37:24;;;;;;;33.13;27.48;;;;;;;;;;5025370;28;20097;-79
2023/01/19 13:39:51;;;;;;;22.65;16.77;;;;;;;;;;5027301;28;20035;-79
2023/01/19 13:42:26;;;;;;;11.30;8.05;;;;;;;;;;5027686;28;20132;-79
2023/01/19 13:44:53;;;;;;;19.27;12.73;;;;;;;;;;5026200;28;20036;-78
2023/01/19 13:47:23;;;;;;;40.38;25.40;;;;;;;;;;5025319;28;20026;-79
2023/01/19 13:49:55;;;;;;;65.50;48.47;;;;;;;;;;5025916;28;20025;-81
2023/01/19 13:52:24;;;;;;;33.75;24.27;;;;;;;;;;5027144;28;20415;-78
2023/01/19 13:54:54;;;;;;;30.20;22.00;;;;;;;;;;5025654;28;20103;-79
2023/01/19 13:57:19;;;;;;;;;;;;;;;;;;5026750;28;20041;-80
2023/01/19 13:59:59;;;;;;;50.28;36.10;;;;;;;;;;5025710;28;19913;-79
2023/01/19 14:02:24;;;;;;;35.83;27.60;;;;;;;;;;5026955;28;20014;-79
2023/01/19 14:04:49;;;;;;;36.35;24.38;;;;;;;;;;5026578;28;20052;-79
2023/01/19 14:07:22;;;;;;;60.15;39.60;;;;;;;;;;5025902;28;20033;-78
2023/01/19 14:09:59;;;;;;;468.50;346.88;;;;;;;;;;5025713;28;20037;-79
2023/01/19 14:12:24;;;;;;;278.92;199.63;;;;;;;;;;5026573;28;20511;-79
2023/01/19 14:14:50;;;;;;;113.53;88.70;;;;;;;;;;5025525;28;20018;-80
2023/01/19 14:17:20;;;;;;;42.00;34.63;;;;;;;;;;5024229;28;20104;-79
2023/01/19 14:19:51;;;;;;;80.97;62.88;;;;;;;;;;5022894;28;20471;-79
2023/01/19 14:22:16;;;;;;;36.22;25.13;;;;;;;;;;5024566;28;20452;-80
2023/01/19 14:24:42;;;;;;;315.50;248.13;;;;;;;;;;5020789;28;20035;-81
2023/01/19 14:27:07;;;;;;;127.78;92.15;;;;;;;;;;5012338;28;20464;-79
2023/01/19 14:29:33;;;;;;;107.38;78.40;;;;;;;;;;5019238;28;20333;-78
2023/01/19 14:31:59;;;;;;;95.50;74.50;;;;;;;;;;5014643;28;20396;-77